createdAt,value
2023-02-03T00:01:03.596Z,54.44
2023-02-03T00:03:07.829Z,54.66
2023-02-03T00:05:11.915Z,54.52
2023-02-03T00:07:15.990Z,54.63
2023-02-03T00:09:20.271Z,54.63
2023-02-03T00:11:24.389Z,54.93
2023-02-03T00:13:30.006Z,55.02
2023-02-03T00:15:34.087Z,54.86
2023-02-03T00:17:38.181Z,54.95
2023-02-03T00:19:42.246Z,54.95
2023-02-03T00:21:46.314Z,54.79
2023-02-03T00:23:50.461Z,54.85
2023-02-03T00:25:54.543Z,54.88
2023-02-03T00:27:58.803Z,54.90
2023-02-03T00:30:04.510Z,55.07
2023-02-03T00:32:08.792Z,55.05
2023-02-03T00:34:13.008Z,54.97
2023-02-03T00:36:17.313Z,55.14
2023-02-03T00:38:21.383Z,55.07
2023-02-03T00:40:26.762Z,55.08
2023-02-03T00:42:31.049Z,55.17
2023-02-03T00:44:35.106Z,55.19
2023-02-03T00:46:40.585Z,55.06
2023-02-03T00:48:44.650Z,55.22
2023-02-03T00:50:50.415Z,55.10
2023-02-03T00:52:55.209Z,55.17
2023-02-03T00:54:59.299Z,55.30
2023-02-03T00:57:03.428Z,55.15
2023-02-03T00:59:07.576Z,55.33
2023-02-03T01:01:12.439Z,55.33
2023-02-03T01:03:18.132Z,55.30
2023-02-03T01:05:22.199Z,55.33
2023-02-03T01:07:26.387Z,55.35
2023-02-03T01:09:30.454Z,55.54
2023-02-03T01:11:34.692Z,55.44
2023-02-03T01:13:39.051Z,55.24
2023-02-03T01:15:48.842Z,55.51
2023-02-03T01:17:52.955Z,55.26
2023-02-03T01:19:58.380Z,55.53
2023-02-03T01:22:02.464Z,55.43
2023-02-03T01:24:07.239Z,55.36
2023-02-03T01:26:12.705Z,55.35
2023-02-03T01:28:16.940Z,55.30
2023-02-03T01:30:21.142Z,55.43
2023-02-03T01:32:25.251Z,55.35
2023-02-03T01:34:29.421Z,55.55
2023-02-03T01:36:35.439Z,55.42
2023-02-03T01:38:39.874Z,55.51
2023-02-03T01:40:44.813Z,55.51
2023-02-03T01:42:49.918Z,55.46
2023-02-03T01:44:55.101Z,55.50
2023-02-03T01:46:59.216Z,55.39
2023-02-03T01:49:06.061Z,55.62
2023-02-03T01:51:10.128Z,55.46
2023-02-03T01:53:15.582Z,55.49
2023-02-03T01:55:21.722Z,55.50
2023-02-03T01:57:27.869Z,55.56
2023-02-03T01:59:32.192Z,55.64
2023-02-03T02:01:37.201Z,55.71
2023-02-03T02:03:43.184Z,55.70
2023-02-03T02:05:49.208Z,55.77
2023-02-03T02:07:53.279Z,55.73
2023-02-03T02:09:58.825Z,55.77
2023-02-03T02:12:02.885Z,55.67
2023-02-03T02:14:07.119Z,55.77
2023-02-03T02:16:15.913Z,55.81
2023-02-03T02:18:29.699Z,55.67
2023-02-03T02:21:04.526Z,55.47
2023-02-03T02:23:36.962Z,55.59
2023-02-03T02:25:55.245Z,55.85
2023-02-03T02:28:14.526Z,55.84
2023-02-03T02:30:44.524Z,55.67
2023-02-03T02:32:55.865Z,55.67
2023-02-03T02:35:04.419Z,55.78
2023-02-03T02:37:10.640Z,55.83
2023-02-03T02:39:15.567Z,55.68
2023-02-03T02:41:21.250Z,55.79
2023-02-03T02:43:29.418Z,55.67
2023-02-03T02:45:40.584Z,55.72
2023-02-03T02:47:45.623Z,55.89
2023-02-03T02:49:54.309Z,55.84
2023-02-03T02:51:58.682Z,55.93
2023-02-03T02:54:04.546Z,55.81
2023-02-03T02:56:11.092Z,55.81
2023-02-03T02:58:16.482Z,55.95
2023-02-03T03:00:21.549Z,55.76
2023-02-03T03:02:32.715Z,55.76
2023-02-03T03:04:38.259Z,55.81
2023-02-03T03:06:45.106Z,55.81
2023-02-03T03:08:51.084Z,55.74
2023-02-03T03:10:55.154Z,55.71
2023-02-03T03:13:01.456Z,55.81
2023-02-03T03:15:07.917Z,55.88
2023-02-03T03:17:13.892Z,55.96
2023-02-03T03:19:19.181Z,55.87
2023-02-03T03:21:25.725Z,55.66
2023-02-03T03:23:32.925Z,55.80
2023-02-03T03:25:37.684Z,55.81
2023-02-03T03:27:43.400Z,55.93
2023-02-03T03:29:49.676Z,55.80
2023-02-03T03:31:54.432Z,55.72
2023-02-03T03:33:58.875Z,55.70
2023-02-03T03:36:04.261Z,55.92
2023-02-03T03:38:10.637Z,55.72
2023-02-03T03:40:19.182Z,55.73
2023-02-03T03:42:26.971Z,55.70
2023-02-03T03:44:32.650Z,55.80
2023-02-03T03:46:38.805Z,55.69
2023-02-03T03:48:47.688Z,55.92
2023-02-03T03:50:54.406Z,55.86
2023-02-03T03:52:58.922Z,55.89
2023-02-03T03:55:03.136Z,55.70
2023-02-03T03:57:14.974Z,55.70
2023-02-03T03:59:20.196Z,55.80
2023-02-03T04:01:24.720Z,55.59
2023-02-03T04:03:31.589Z,55.86
2023-02-03T04:05:35.726Z,55.62
2023-02-03T04:07:40.059Z,55.99
2023-02-03T04:09:44.137Z,55.63
2023-02-03T04:12:03.692Z,55.88
2023-02-03T04:14:09.115Z,55.92
2023-02-03T04:16:13.380Z,55.68
2023-02-03T04:18:17.667Z,55.69
2023-02-03T04:20:21.878Z,55.56
2023-02-03T04:22:26.003Z,55.84
2023-02-03T04:24:30.402Z,55.49
2023-02-03T04:26:34.398Z,55.82
2023-02-03T04:28:38.486Z,55.84
2023-02-03T04:30:43.943Z,55.92
2023-02-03T04:32:48.047Z,55.77
2023-02-03T04:34:52.121Z,55.84
2023-02-03T04:36:56.215Z,55.83
2023-02-03T04:39:00.305Z,55.57
2023-02-03T04:41:04.439Z,55.81
2023-02-03T04:43:09.199Z,55.64
2023-02-03T04:45:13.333Z,55.97
2023-02-03T04:47:18.870Z,55.88
2023-02-03T04:49:22.974Z,55.61
2023-02-03T04:51:27.494Z,55.61
2023-02-03T04:53:31.710Z,55.94
2023-02-03T04:55:35.814Z,55.83
2023-02-03T04:57:39.901Z,55.60
2023-02-03T04:59:43.966Z,55.62
2023-02-03T05:01:48.080Z,55.80
2023-02-03T05:03:53.827Z,55.67
2023-02-03T05:05:58.592Z,55.58
2023-02-03T05:08:02.915Z,55.77
2023-02-03T05:10:07.583Z,55.59
2023-02-03T05:12:11.652Z,55.81
2023-02-03T05:14:15.735Z,55.57
2023-02-03T05:16:20.053Z,55.71
2023-02-03T05:18:24.149Z,55.54
2023-02-03T05:20:29.753Z,55.64
2023-02-03T05:22:35.228Z,55.60
2023-02-03T05:24:39.300Z,55.64
2023-02-03T05:26:43.407Z,55.52
2023-02-03T05:28:47.486Z,55.59
2023-02-03T05:30:51.617Z,55.63
2023-02-03T05:32:55.735Z,55.77
2023-02-03T05:34:59.808Z,55.41
2023-02-03T05:37:05.263Z,55.56
2023-02-03T05:39:09.585Z,55.38
2023-02-03T05:41:31.049Z,55.42
2023-02-03T05:43:35.237Z,55.50
2023-02-03T05:45:39.359Z,55.38
2023-02-03T05:47:43.614Z,55.32
2023-02-03T05:49:47.664Z,55.41
2023-02-03T05:51:51.880Z,55.30
2023-02-03T05:53:57.351Z,55.51
2023-02-03T05:56:01.433Z,55.47
2023-02-03T05:58:05.746Z,55.25
2023-02-03T06:00:11.288Z,55.28
2023-02-03T06:02:18.247Z,55.38
2023-02-03T06:04:22.365Z,55.41
2023-02-03T06:06:27.191Z,55.18
2023-02-03T06:08:31.279Z,55.27
2023-02-03T06:10:36.714Z,55.19
2023-02-03T06:12:40.801Z,55.34
2023-02-03T06:14:45.190Z,55.39
2023-02-03T06:16:49.553Z,55.29
2023-02-03T06:18:54.030Z,55.21
2023-02-03T06:20:58.096Z,55.21
2023-02-03T06:23:02.299Z,55.40
2023-02-03T06:25:07.099Z,55.37
2023-02-03T06:27:12.563Z,55.33
2023-02-03T06:29:16.976Z,55.41
2023-02-03T06:31:21.205Z,55.18
2023-02-03T06:33:25.338Z,55.42
2023-02-03T06:35:29.477Z,55.30
2023-02-03T06:37:35.519Z,55.06
2023-02-03T06:39:39.580Z,55.26
2023-02-03T06:41:43.655Z,55.14
2023-02-03T06:43:49.139Z,55.12
2023-02-03T06:45:53.588Z,55.09
2023-02-03T06:47:57.682Z,55.30
2023-02-03T06:50:01.771Z,55.15
2023-02-03T06:52:06.073Z,55.28
2023-02-03T06:54:10.954Z,55.02
2023-02-03T06:56:15.059Z,55.10
2023-02-03T06:58:19.129Z,55.13
2023-02-03T07:00:24.958Z,54.99
2023-02-03T07:02:29.077Z,55.02
2023-02-03T07:04:33.161Z,54.81
2023-02-03T07:06:37.349Z,54.97
2023-02-03T07:08:41.566Z,55.01
2023-02-03T07:10:45.632Z,55.02
2023-02-03T07:12:50.621Z,55.00
2023-02-03T07:14:55.201Z,55.15
2023-02-03T07:17:00.730Z,54.99
2023-02-03T07:19:04.941Z,54.94
2023-02-03T07:21:09.237Z,55.07
2023-02-03T07:23:13.320Z,54.92
2023-02-03T07:25:17.423Z,54.84
2023-02-03T07:27:21.493Z,54.98
2023-02-03T07:29:25.621Z,54.96
2023-02-03T07:31:29.824Z,54.69
2023-02-03T07:33:35.306Z,54.89
2023-02-03T07:35:39.417Z,54.71
2023-02-03T07:37:43.687Z,54.63
2023-02-03T07:39:47.808Z,54.54
2023-02-03T07:41:51.870Z,50.84
2023-02-03T07:43:56.194Z,48.77
2023-02-03T07:46:01.688Z,48.39
2023-02-03T07:48:06.129Z,50.49
2023-02-03T07:50:12.087Z,52.41
2023-02-03T07:52:16.313Z,53.16
2023-02-03T07:54:20.465Z,53.46
2023-02-03T07:56:24.556Z,53.50
2023-02-03T07:58:28.638Z,53.25
2023-02-03T08:00:32.710Z,53.16
2023-02-03T08:02:36.796Z,53.94
2023-02-03T08:04:40.913Z,53.70
2023-02-03T08:06:46.555Z,53.70
2023-02-03T08:08:50.627Z,54.03
2023-02-03T08:10:56.995Z,53.65
2023-02-03T08:13:01.076Z,54.02
2023-02-03T08:15:05.711Z,54.20
2023-02-03T08:17:10.024Z,54.31
2023-02-03T08:19:14.544Z,54.39
2023-02-03T08:21:18.612Z,54.19
2023-02-03T08:23:24.027Z,54.12
2023-02-03T08:25:28.159Z,54.37
2023-02-03T08:27:33.377Z,54.01
2023-02-03T08:29:37.494Z,54.12
2023-02-03T08:31:43.438Z,54.27
2023-02-03T08:33:47.570Z,54.14
2023-02-03T08:35:51.788Z,54.08
2023-02-03T08:37:56.229Z,53.94
2023-02-03T08:40:01.660Z,53.96
2023-02-03T08:42:06.111Z,53.81
2023-02-03T08:44:10.217Z,53.62
2023-02-03T08:46:14.472Z,54.06
2023-02-03T08:48:18.573Z,54.32
2023-02-03T08:50:22.767Z,54.18
2023-02-03T08:52:26.855Z,54.29
2023-02-03T08:54:30.932Z,54.61
2023-02-03T08:56:36.452Z,54.56
2023-02-03T08:58:40.555Z,54.67
2023-02-03T09:00:44.775Z,54.91
2023-02-03T09:02:48.872Z,54.46
2023-02-03T09:04:53.053Z,54.94
2023-02-03T09:06:57.262Z,55.00
2023-02-03T09:09:01.314Z,54.98
2023-02-03T09:11:09.017Z,54.89
2023-02-03T09:13:14.469Z,54.97
2023-02-03T09:15:18.764Z,55.04
2023-02-03T09:17:23.029Z,55.08
2023-02-03T09:19:27.188Z,54.93
2023-02-03T09:21:35.529Z,54.83
2023-02-03T09:23:50.927Z,55.06
2023-02-03T09:25:54.982Z,55.01
2023-02-03T09:27:59.077Z,54.83
2023-02-03T09:30:43.063Z,54.73
2023-02-03T09:32:54.067Z,54.61
2023-02-03T09:34:58.315Z,54.66
2023-02-03T09:37:02.545Z,54.54
2023-02-03T09:39:07.004Z,54.50
2023-02-03T09:41:18.218Z,54.36
2023-02-03T09:43:30.713Z,54.50
2023-02-03T09:45:34.809Z,54.69
2023-02-03T09:47:40.157Z,54.87
2023-02-03T09:49:47.759Z,54.82
2023-02-03T09:51:53.578Z,54.88
2023-02-03T09:54:01.783Z,54.70
2023-02-03T09:56:06.079Z,54.67
2023-02-03T09:58:12.837Z,54.72
2023-02-03T10:00:20.484Z,54.91
2023-02-03T10:02:45.451Z,54.91
2023-02-03T10:04:53.608Z,54.58
2023-02-03T10:07:02.722Z,54.82
2023-02-03T10:09:28.897Z,54.75
2023-02-03T10:11:49.597Z,54.48
2023-02-03T10:13:58.724Z,54.53
2023-02-03T10:16:10.381Z,54.66
2023-02-03T10:18:15.338Z,54.89
2023-02-03T10:20:22.933Z,55.07
2023-02-03T10:22:28.481Z,54.99
2023-02-03T10:24:37.098Z,54.93
2023-02-03T10:26:41.180Z,54.80
2023-02-03T10:28:49.347Z,54.58
2023-02-03T10:30:56.804Z,54.41
2023-02-03T10:33:03.111Z,54.51
2023-02-03T10:35:11.769Z,54.36
2023-02-03T10:37:23.377Z,54.48
2023-02-03T10:39:33.232Z,54.46
2023-02-03T10:41:37.309Z,54.48
2023-02-03T10:43:51.955Z,54.43
2023-02-03T10:45:56.372Z,54.53
2023-02-03T10:48:00.456Z,54.50
2023-02-03T10:50:07.358Z,54.43
2023-02-03T10:52:11.462Z,54.44
2023-02-03T10:54:33.462Z,54.53
2023-02-03T10:56:38.417Z,54.42
2023-02-03T10:58:48.809Z,54.39
2023-02-03T11:00:55.551Z,54.42
2023-02-03T11:03:04.249Z,54.40
2023-02-03T11:05:13.004Z,54.30
2023-02-03T11:07:26.151Z,54.36
2023-02-03T11:09:34.625Z,54.41
2023-02-03T11:11:41.579Z,54.38
2023-02-03T11:13:45.787Z,54.33
2023-02-03T11:15:57.945Z,54.42
2023-02-03T11:18:02.011Z,54.36
2023-02-03T11:20:13.729Z,54.20
2023-02-03T11:22:28.603Z,54.45
2023-02-03T11:24:35.274Z,54.26
2023-02-03T11:26:44.388Z,54.83
2023-02-03T11:28:49.908Z,54.94
2023-02-03T11:30:56.965Z,55.33
2023-02-03T11:33:02.467Z,55.31
2023-02-03T11:35:14.774Z,55.36
2023-02-03T11:37:29.725Z,55.60
2023-02-03T11:39:35.733Z,55.41
2023-02-03T11:41:40.263Z,55.56
2023-02-03T11:43:44.790Z,55.58
2023-02-03T11:45:49.617Z,55.56
2023-02-03T11:47:57.010Z,55.62
2023-02-03T11:50:22.077Z,55.49
2023-02-03T11:52:49.350Z,55.57
2023-02-03T11:54:57.311Z,55.08
2023-02-03T11:57:09.482Z,55.09
2023-02-03T11:59:25.044Z,55.28
2023-02-03T12:01:43.284Z,55.52
2023-02-03T12:04:28.993Z,55.45
2023-02-03T12:06:54.865Z,55.45
2023-02-03T12:09:10.972Z,55.52
2023-02-03T12:11:23.958Z,55.71
2023-02-03T12:14:01.142Z,55.71
2023-02-03T12:16:16.930Z,55.33
2023-02-03T12:18:34.659Z,55.80
2023-02-03T12:20:48.104Z,55.38
2023-02-03T12:22:56.073Z,55.47
2023-02-03T12:25:03.920Z,55.43
2023-02-03T12:27:17.515Z,55.31
2023-02-03T12:29:23.465Z,55.25
2023-02-03T12:31:31.588Z,55.53
2023-02-03T12:33:36.912Z,55.55
2023-02-03T12:35:44.756Z,55.35
2023-02-03T12:37:51.489Z,55.28
2023-02-03T12:39:57.025Z,55.32
2023-02-03T12:42:02.930Z,55.42
2023-02-03T12:44:09.907Z,55.50
2023-02-03T12:46:15.729Z,55.53
2023-02-03T12:48:21.330Z,55.53
2023-02-03T12:50:28.802Z,55.44
2023-02-03T12:52:36.105Z,55.55
2023-02-03T12:54:45.314Z,55.47
2023-02-03T12:56:49.420Z,55.38
2023-02-03T12:58:55.387Z,55.51
2023-02-03T13:01:01.852Z,55.29
2023-02-03T13:03:11.942Z,55.56
2023-02-03T13:05:20.983Z,55.69
2023-02-03T13:07:26.730Z,55.54
2023-02-03T13:09:32.904Z,55.39
2023-02-03T13:11:38.211Z,55.48
2023-02-03T13:13:45.388Z,55.63
2023-02-03T13:15:50.454Z,55.59
2023-02-03T13:17:57.601Z,55.67
2023-02-03T13:20:03.497Z,55.42
2023-02-03T13:22:11.997Z,55.46
2023-02-03T13:24:16.108Z,55.38
2023-02-03T13:26:41.190Z,55.42
2023-02-03T13:29:00.869Z,55.30
2023-02-03T13:31:14.570Z,55.40
2023-02-03T13:33:53.348Z,55.46
2023-02-03T13:36:03.271Z,55.33
2023-02-03T13:38:29.154Z,55.44
2023-02-03T13:40:44.891Z,55.29
2023-02-03T13:42:53.364Z,55.31
2023-02-03T13:44:59.990Z,55.38
2023-02-03T13:47:04.105Z,55.41
2023-02-03T13:49:09.680Z,55.40
2023-02-03T13:51:17.044Z,55.44
2023-02-03T13:53:21.835Z,55.51
2023-02-03T13:55:31.883Z,55.47
2023-02-03T13:57:37.926Z,55.52
2023-02-03T13:59:43.044Z,55.53
2023-02-03T14:01:47.114Z,55.39
2023-02-03T14:03:51.236Z,55.53
2023-02-03T14:05:56.816Z,54.95
2023-02-03T14:08:01.218Z,55.22
2023-02-03T14:10:26.262Z,55.25
2023-02-03T14:12:34.548Z,55.44
2023-02-03T14:15:04.042Z,55.16
2023-02-03T14:17:10.642Z,55.38
2023-02-03T14:19:35.547Z,55.46
2023-02-03T14:21:43.307Z,55.48
2023-02-03T14:23:51.249Z,55.28
2023-02-03T14:25:56.818Z,55.42
2023-02-03T14:28:01.260Z,55.22
2023-02-03T14:30:07.873Z,55.15
2023-02-03T14:32:12.387Z,55.56
2023-02-03T14:34:16.756Z,55.33
2023-02-03T14:36:32.184Z,55.24
2023-02-03T14:38:37.658Z,55.23
2023-02-03T14:40:43.124Z,55.54
2023-02-03T14:43:11.426Z,55.43
2023-02-03T14:45:26.339Z,55.32
2023-02-03T14:47:40.829Z,55.17
2023-02-03T14:49:52.142Z,55.51
2023-02-03T14:52:10.070Z,55.59
2023-02-03T14:54:38.680Z,56.01
2023-02-03T14:57:04.764Z,56.27
2023-02-03T14:59:09.881Z,56.11
2023-02-03T15:01:25.818Z,56.21
2023-02-03T15:03:31.155Z,55.97
2023-02-03T15:05:39.914Z,56.29
2023-02-03T15:07:46.043Z,55.91
2023-02-03T15:09:51.552Z,56.17
2023-02-03T15:11:55.655Z,55.76
2023-02-03T15:14:19.237Z,55.98
2023-02-03T15:16:24.694Z,55.72
2023-02-03T15:18:30.898Z,56.07
2023-02-03T15:20:38.614Z,55.81
2023-02-03T15:22:42.770Z,55.90
2023-02-03T15:24:46.973Z,56.49
2023-02-03T15:26:53.502Z,56.39
2023-02-03T15:28:58.681Z,56.39
2023-02-03T15:31:04.504Z,56.33
2023-02-03T15:33:10.419Z,56.22
2023-02-03T15:35:16.086Z,56.36
2023-02-03T15:37:22.427Z,56.11
2023-02-03T15:39:34.681Z,56.29
2023-02-03T15:41:38.751Z,56.15
2023-02-03T15:43:44.959Z,56.22
2023-02-03T15:45:56.776Z,55.94
2023-02-03T15:48:02.312Z,56.18
2023-02-03T15:50:17.688Z,56.23
2023-02-03T15:52:23.616Z,56.22
2023-02-03T15:54:30.342Z,56.18
2023-02-03T15:56:37.828Z,56.11
2023-02-03T15:58:46.901Z,56.27
2023-02-03T16:00:51.578Z,56.01
2023-02-03T16:02:55.736Z,56.17
2023-02-03T16:04:59.958Z,56.05
2023-02-03T16:07:04.242Z,55.98
2023-02-03T16:09:08.547Z,56.27
2023-02-03T16:11:29.930Z,56.10
2023-02-03T16:13:35.791Z,56.25
2023-02-03T16:15:41.311Z,56.22
2023-02-03T16:17:45.426Z,56.28
2023-02-03T16:19:51.241Z,56.17
2023-02-03T16:21:56.657Z,56.12
2023-02-03T16:24:00.934Z,56.12
2023-02-03T16:26:18.203Z,56.37
2023-02-03T16:28:40.672Z,56.35
2023-02-03T16:31:13.497Z,56.04
2023-02-03T16:33:35.866Z,56.04
2023-02-03T16:35:57.443Z,56.09
2023-02-03T16:38:24.336Z,56.20
2023-02-03T16:40:46.024Z,56.06
2023-02-03T16:43:07.655Z,56.44
2023-02-03T16:45:33.113Z,56.45
2023-02-03T16:47:57.207Z,56.60
2023-02-03T16:50:26.400Z,56.36
2023-02-03T16:52:40.498Z,56.28
2023-02-03T16:54:44.688Z,56.31
2023-02-03T16:56:49.335Z,55.85
2023-02-03T16:58:53.459Z,56.25
2023-02-03T17:00:59.132Z,56.53
2023-02-03T17:03:06.487Z,57.17
2023-02-03T17:05:10.783Z,57.17
2023-02-03T17:07:14.842Z,57.04
2023-02-03T17:09:21.969Z,56.68
2023-02-03T17:11:31.304Z,56.52
2023-02-03T17:13:36.903Z,56.80
2023-02-03T17:15:41.716Z,56.57
2023-02-03T17:17:46.049Z,56.44
2023-02-03T17:19:51.630Z,56.18
2023-02-03T17:21:55.967Z,56.35
2023-02-03T17:24:00.458Z,56.68
2023-02-03T17:26:05.032Z,56.10
2023-02-03T17:28:10.092Z,55.98
2023-02-03T17:30:14.935Z,56.05
2023-02-03T17:32:19.134Z,56.38
2023-02-03T17:34:23.488Z,56.71
2023-02-03T17:36:29.667Z,56.44
2023-02-03T17:38:36.794Z,56.52
2023-02-03T17:54:57.817Z,57.38
2023-02-03T17:57:05.651Z,58.28
2023-02-03T17:59:10.357Z,57.78
2023-02-03T18:01:17.601Z,58.11
2023-02-03T18:03:22.117Z,58.47
2023-02-03T18:05:29.477Z,59.80
2023-02-03T18:08:12.118Z,59.54
2023-02-03T18:10:21.633Z,59.84
2023-02-03T18:12:26.046Z,59.73
2023-02-03T18:14:30.679Z,60.03
2023-02-03T18:16:35.976Z,60.64
2023-02-03T18:18:40.272Z,60.44
2023-02-03T18:20:44.537Z,60.28
2023-02-03T18:22:48.738Z,60.60
2023-02-03T18:24:55.479Z,60.51
2023-02-03T18:27:00.395Z,60.28
2023-02-03T18:29:05.572Z,60.79
2023-02-03T18:31:10.681Z,60.57
2023-02-03T18:33:14.769Z,60.71
2023-02-03T18:35:19.081Z,60.62
2023-02-03T18:37:23.158Z,60.66
2023-02-03T18:39:31.613Z,60.26
2023-02-03T18:41:38.410Z,60.44
2023-02-03T18:43:42.611Z,60.91
2023-02-03T18:45:46.826Z,60.83
2023-02-03T18:47:50.970Z,60.92
2023-02-03T18:49:55.251Z,60.72
2023-02-03T18:51:59.491Z,60.38
2023-02-03T18:54:04.249Z,60.45
2023-02-03T18:56:09.415Z,60.37
2023-02-03T18:58:14.855Z,60.32
2023-02-03T19:00:19.871Z,60.21
2023-02-03T19:02:25.649Z,60.25
2023-02-03T19:04:29.802Z,60.34
2023-02-03T19:06:34.441Z,60.03
2023-02-03T19:08:38.546Z,59.32
2023-02-03T19:10:42.657Z,60.17
2023-02-03T19:12:46.777Z,60.70
2023-02-03T19:14:52.404Z,60.39
2023-02-03T19:16:56.476Z,60.33
2023-02-03T19:19:00.642Z,60.62
2023-02-03T19:21:04.807Z,60.44
2023-02-03T19:23:08.880Z,60.45
2023-02-03T19:25:13.221Z,60.38
2023-02-03T19:27:17.303Z,60.17
2023-02-03T19:29:21.622Z,60.27
2023-02-03T19:31:27.698Z,60.14
2023-02-03T19:33:32.156Z,60.19
2023-02-03T19:35:36.310Z,60.00
2023-02-03T19:37:40.441Z,60.08
2023-02-03T19:39:44.977Z,59.99
2023-02-03T19:41:49.053Z,60.12
2023-02-03T19:43:53.507Z,60.02
2023-02-03T19:45:57.704Z,60.20
2023-02-03T19:48:03.135Z,59.79
2023-02-03T19:50:07.657Z,60.00
2023-02-03T19:52:12.448Z,60.22
2023-02-03T19:54:17.056Z,59.96
2023-02-03T19:56:21.158Z,60.08
2023-02-03T19:58:25.244Z,59.98
2023-02-03T20:00:29.668Z,59.76
2023-02-03T20:02:33.916Z,59.90
2023-02-03T20:04:39.404Z,59.99
2023-02-03T20:06:43.564Z,59.89
2023-02-03T20:08:47.694Z,59.88
2023-02-03T20:10:52.331Z,60.07
2023-02-03T20:12:56.514Z,59.85
2023-02-03T20:15:01.329Z,59.96
2023-02-03T20:17:07.383Z,60.20
2023-02-03T20:19:11.569Z,60.23
2023-02-03T20:21:17.056Z,60.07
2023-02-03T20:23:21.123Z,59.92
2023-02-03T20:25:25.337Z,60.00
2023-02-03T20:27:29.467Z,59.94
2023-02-03T20:29:33.747Z,59.84
2023-02-03T20:31:37.888Z,60.03
2023-02-03T20:33:42.126Z,59.89
2023-02-03T20:35:46.281Z,60.01
2023-02-03T20:37:52.203Z,59.92
2023-02-03T20:39:56.392Z,59.90
2023-02-03T20:42:00.496Z,59.66
2023-02-03T20:44:07.762Z,59.87
2023-02-03T20:46:12.188Z,59.96
2023-02-03T20:48:16.856Z,59.64
2023-02-03T20:50:28.933Z,60.00
2023-02-03T20:52:52.589Z,58.96
2023-02-03T20:55:00.445Z,59.26
2023-02-03T20:57:07.000Z,59.44
2023-02-03T20:59:14.047Z,59.16
2023-02-03T21:01:21.117Z,59.40
2023-02-03T21:03:39.664Z,59.59
2023-02-03T21:05:45.331Z,58.87
2023-02-03T21:07:50.017Z,59.20
2023-02-03T21:10:06.880Z,58.92
2023-02-03T21:12:12.714Z,58.99
2023-02-03T21:14:21.105Z,59.21
2023-02-03T21:16:27.498Z,59.16
2023-02-03T21:18:35.763Z,58.96
2023-02-03T21:20:40.013Z,59.04
2023-02-03T21:22:44.232Z,59.17
2023-02-03T21:24:53.670Z,58.84
2023-02-03T21:26:59.373Z,58.82
2023-02-03T21:29:03.922Z,58.91
2023-02-03T21:31:23.324Z,59.17
2023-02-03T21:33:30.811Z,59.42
2023-02-03T21:35:37.109Z,59.67
2023-02-03T21:37:42.631Z,59.26
2023-02-03T21:39:47.916Z,58.94
2023-02-03T21:41:52.127Z,58.88
2023-02-03T21:43:58.212Z,58.90
2023-02-03T21:46:03.659Z,58.89
2023-02-03T21:48:35.389Z,58.95
2023-02-03T21:50:41.007Z,59.33
2023-02-03T21:52:45.134Z,59.25
2023-02-03T21:54:49.460Z,59.27
2023-02-03T21:56:54.165Z,59.40
2023-02-03T21:59:00.233Z,59.40
2023-02-03T22:01:06.202Z,58.83
2023-02-03T22:03:19.092Z,58.90
2023-02-03T22:05:23.264Z,59.19
2023-02-03T22:07:27.392Z,59.41
2023-02-03T22:09:31.564Z,59.61
2023-02-03T22:11:35.757Z,59.71
2023-02-03T22:13:40.226Z,59.72
2023-02-03T22:15:45.717Z,59.57
2023-02-03T22:17:50.955Z,59.77
2023-02-03T22:19:55.128Z,59.83
2023-02-03T22:21:59.410Z,59.83
2023-02-03T22:24:03.929Z,59.71
2023-02-03T22:26:08.089Z,59.47
2023-02-03T22:28:12.642Z,59.62
2023-02-03T22:30:17.902Z,59.71
2023-02-03T22:32:23.662Z,59.52
2023-02-03T22:34:27.859Z,59.60
2023-02-03T22:36:32.031Z,59.75
2023-02-03T22:38:36.521Z,59.62
2023-02-03T22:40:40.717Z,59.74
2023-02-03T22:42:45.102Z,59.65
2023-02-03T22:44:49.293Z,59.70
2023-02-03T22:46:53.504Z,59.76
2023-02-03T22:48:58.988Z,59.64
2023-02-03T22:51:03.194Z,59.79
2023-02-03T22:53:09.178Z,59.64
2023-02-03T22:55:13.358Z,59.83
2023-02-03T22:57:17.608Z,59.78
2023-02-03T22:59:21.734Z,59.87
2023-02-03T23:01:25.895Z,59.81
2023-02-03T23:03:32.498Z,59.83
2023-02-03T23:05:38.283Z,59.72
2023-02-03T23:07:42.527Z,59.89
2023-02-03T23:09:46.735Z,59.69
2023-02-03T23:11:51.021Z,59.65
2023-02-03T23:13:55.165Z,59.91
2023-02-03T23:15:59.307Z,59.76
2023-02-03T23:18:03.945Z,59.90
2023-02-03T23:20:09.695Z,59.88
2023-02-03T23:22:15.696Z,59.75
2023-02-03T23:24:19.841Z,59.77
2023-02-03T23:26:24.016Z,59.96
2023-02-03T23:28:28.194Z,59.83
2023-02-03T23:30:34.098Z,60.01
2023-02-03T23:32:38.644Z,59.86
2023-02-03T23:35:00.326Z,59.73
2023-02-03T23:37:04.465Z,59.74
2023-02-03T23:39:09.979Z,59.78
2023-02-03T23:41:14.205Z,59.81
2023-02-03T23:43:18.357Z,59.81
2023-02-03T23:45:22.599Z,59.90
2023-02-03T23:47:26.807Z,59.97
2023-02-03T23:49:31.315Z,59.96
2023-02-03T23:51:35.445Z,59.75
2023-02-03T23:53:39.616Z,59.72
2023-02-03T23:55:45.132Z,59.99
2023-02-03T23:57:49.328Z,59.96
2023-02-03T23:59:53.490Z,60.16
